sensor_id;sensor_type;location;lat;lon;timestamp;temperature;humidity
22069;DHT22;13887;57.196;-2.100;2023-09-19T00:00:44;12.60;74.03
22069;DHT22;13887;57.196;-2.100;2023-09-19T00:03:15;12.59;74.28
22069;DHT22;13887;57.196;-2.100;2023-09-19T00:05:43;12.59;73.73
22069;DHT22;13887;57.196;-2.100;2023-09-19T00:08:13;12.61;73.82
22069;DHT22;13887;57.196;-2.100;2023-09-19T00:10:41;12.60;73.57
22069;DHT22;13887;57.196;-2.100;2023-09-19T00:13:09;12.60;73.34
22069;DHT22;13887;57.196;-2.100;2023-09-19T00:15:46;12.56;73.87
22069;DHT22;13887;57.196;-2.100;2023-09-19T00:18:20;12.57;73.86
22069;DHT22;13887;57.196;-2.100;2023-09-19T00:20:49;12.56;73.96
22069;DHT22;13887;57.196;-2.100;2023-09-19T00:23:19;12.58;73.42
22069;DHT22;13887;57.196;-2.100;2023-09-19T00:25:47;12.57;73.91
22069;DHT22;13887;57.196;-2.100;2023-09-19T00:28:15;12.58;73.78
22069;DHT22;13887;57.196;-2.100;2023-09-19T00:30:45;12.59;73.53
22069;DHT22;13887;57.196;-2.100;2023-09-19T00:33:12;12.60;73.01
22069;DHT22;13887;57.196;-2.100;2023-09-19T00:36:02;12.56;73.59
22069;DHT22;13887;57.196;-2.100;2023-09-19T00:38:32;12.55;73.70
22069;DHT22;13887;57.196;-2.100;2023-09-19T00:40:59;12.55;73.55
22069;DHT22;13887;57.196;-2.100;2023-09-19T00:43:29;12.56;73.71
22069;DHT22;13887;57.196;-2.100;2023-09-19T00:46:02;12.53;73.65
22069;DHT22;13887;57.196;-2.100;2023-09-19T00:48:31;12.50;73.76
22069;DHT22;13887;57.196;-2.100;2023-09-19T00:51:02;12.52;73.55
22069;DHT22;13887;57.196;-2.100;2023-09-19T00:53:32;12.49;73.76
22069;DHT22;13887;57.196;-2.100;2023-09-19T00:56:03;12.47;73.73
22069;DHT22;13887;57.196;-2.100;2023-09-19T00:58:34;12.48;74.02
22069;DHT22;13887;57.196;-2.100;2023-09-19T01:01:04;12.47;73.64
22069;DHT22;13887;57.196;-2.100;2023-09-19T01:03:36;12.45;73.76
22069;DHT22;13887;57.196;-2.100;2023-09-19T01:06:05;12.43;73.38
22069;DHT22;13887;57.196;-2.100;2023-09-19T01:08:32;12.43;73.41
22069;DHT22;13887;57.196;-2.100;2023-09-19T01:14:29;12.42;73.66
22069;DHT22;13887;57.196;-2.100;2023-09-19T01:17:20;12.41;73.81
22069;DHT22;13887;57.196;-2.100;2023-09-19T01:23:11;12.37;73.33
22069;DHT22;13887;57.196;-2.100;2023-09-19T01:26:07;12.36;73.89
22069;DHT22;13887;57.196;-2.100;2023-09-19T01:29:01;12.37;73.67
22069;DHT22;13887;57.196;-2.100;2023-09-19T01:31:34;12.31;73.94
22069;DHT22;13887;57.196;-2.100;2023-09-19T01:34:05;12.30;73.86
22069;DHT22;13887;57.196;-2.100;2023-09-19T01:36:35;12.33;73.70
22069;DHT22;13887;57.196;-2.100;2023-09-19T01:39:05;12.32;73.46
22069;DHT22;13887;57.196;-2.100;2023-09-19T01:41:58;12.29;73.40
22069;DHT22;13887;57.196;-2.100;2023-09-19T01:44:40;12.29;73.48
22069;DHT22;13887;57.196;-2.100;2023-09-19T01:47:19;12.31;73.77
22069;DHT22;13887;57.196;-2.100;2023-09-19T01:50:17;12.30;73.73
22069;DHT22;13887;57.196;-2.100;2023-09-19T01:52:57;12.34;73.35
22069;DHT22;13887;57.196;-2.100;2023-09-19T01:55:28;12.34;73.32
22069;DHT22;13887;57.196;-2.100;2023-09-19T01:58:16;12.30;73.57
22069;DHT22;13887;57.196;-2.100;2023-09-19T02:00:48;12.28;73.61
22069;DHT22;13887;57.196;-2.100;2023-09-19T02:03:20;12.25;73.99
22069;DHT22;13887;57.196;-2.100;2023-09-19T02:05:50;12.22;74.11
22069;DHT22;13887;57.196;-2.100;2023-09-19T02:08:19;12.22;73.92
22069;DHT22;13887;57.196;-2.100;2023-09-19T02:10:47;12.25;73.71
22069;DHT22;13887;57.196;-2.100;2023-09-19T02:13:17;12.20;74.08
22069;DHT22;13887;57.196;-2.100;2023-09-19T02:15:46;12.23;73.89
22069;DHT22;13887;57.196;-2.100;2023-09-19T02:18:13;12.19;73.95
22069;DHT22;13887;57.196;-2.100;2023-09-19T02:20:44;12.22;73.76
22069;DHT22;13887;57.196;-2.100;2023-09-19T02:23:12;12.20;73.95
22069;DHT22;13887;57.196;-2.100;2023-09-19T02:25:39;12.20;73.77
22069;DHT22;13887;57.196;-2.100;2023-09-19T02:28:07;12.18;73.93
22069;DHT22;13887;57.196;-2.100;2023-09-19T02:30:36;12.15;74.20
22069;DHT22;13887;57.196;-2.100;2023-09-19T02:33:03;12.15;74.06
22069;DHT22;13887;57.196;-2.100;2023-09-19T02:35:32;12.14;74.04
22069;DHT22;13887;57.196;-2.100;2023-09-19T02:38:02;12.11;74.21
22069;DHT22;13887;57.196;-2.100;2023-09-19T02:40:33;12.07;74.22
22069;DHT22;13887;57.196;-2.100;2023-09-19T02:43:03;12.07;74.25
22069;DHT22;13887;57.196;-2.100;2023-09-19T02:45:31;12.04;74.18
22069;DHT22;13887;57.196;-2.100;2023-09-19T02:47:59;12.06;74.09
22069;DHT22;13887;57.196;-2.100;2023-09-19T02:50:27;12.03;74.25
22069;DHT22;13887;57.196;-2.100;2023-09-19T02:52:55;12.04;73.89
22069;DHT22;13887;57.196;-2.100;2023-09-19T02:55:23;12.04;74.06
22069;DHT22;13887;57.196;-2.100;2023-09-19T02:57:52;11.98;74.34
22069;DHT22;13887;57.196;-2.100;2023-09-19T03:00:20;11.97;74.16
22069;DHT22;13887;57.196;-2.100;2023-09-19T03:02:54;11.98;74.17
22069;DHT22;13887;57.196;-2.100;2023-09-19T03:05:23;11.99;73.92
22069;DHT22;13887;57.196;-2.100;2023-09-19T03:07:52;11.98;74.05
22069;DHT22;13887;57.196;-2.100;2023-09-19T03:10:21;11.98;73.73
22069;DHT22;13887;57.196;-2.100;2023-09-19T03:12:49;11.94;74.20
22069;DHT22;13887;57.196;-2.100;2023-09-19T03:15:17;11.93;74.14
22069;DHT22;13887;57.196;-2.100;2023-09-19T03:17:48;11.94;74.15
22069;DHT22;13887;57.196;-2.100;2023-09-19T03:20:20;11.94;74.12
22069;DHT22;13887;57.196;-2.100;2023-09-19T03:22:49;11.91;74.03
22069;DHT22;13887;57.196;-2.100;2023-09-19T03:25:17;11.92;73.86
22069;DHT22;13887;57.196;-2.100;2023-09-19T03:27:48;11.88;74.29
22069;DHT22;13887;57.196;-2.100;2023-09-19T03:30:16;11.87;74.02
22069;DHT22;13887;57.196;-2.100;2023-09-19T03:32:48;11.83;74.37
22069;DHT22;13887;57.196;-2.100;2023-09-19T03:35:18;11.85;73.96
22069;DHT22;13887;57.196;-2.100;2023-09-19T03:37:47;11.84;74.14
22069;DHT22;13887;57.196;-2.100;2023-09-19T03:40:14;11.85;74.03
22069;DHT22;13887;57.196;-2.100;2023-09-19T03:42:43;11.83;73.91
22069;DHT22;13887;57.196;-2.100;2023-09-19T03:45:12;11.79;74.11
22069;DHT22;13887;57.196;-2.100;2023-09-19T03:47:45;11.82;73.95
22069;DHT22;13887;57.196;-2.100;2023-09-19T03:50:18;11.78;73.99
22069;DHT22;13887;57.196;-2.100;2023-09-19T03:52:45;11.77;74.05
22069;DHT22;13887;57.196;-2.100;2023-09-19T03:55:12;11.77;74.05
22069;DHT22;13887;57.196;-2.100;2023-09-19T03:57:40;11.77;73.83
22069;DHT22;13887;57.196;-2.100;2023-09-19T04:00:09;11.77;73.88
22069;DHT22;13887;57.196;-2.100;2023-09-19T04:02:39;11.77;73.70
22069;DHT22;13887;57.196;-2.100;2023-09-19T04:05:07;11.76;73.90
22069;DHT22;13887;57.196;-2.100;2023-09-19T04:07:35;11.72;74.14
22069;DHT22;13887;57.196;-2.100;2023-09-19T04:10:02;11.71;74.06
22069;DHT22;13887;57.196;-2.100;2023-09-19T04:12:31;11.71;73.99
22069;DHT22;13887;57.196;-2.100;2023-09-19T04:15:00;11.71;73.91
22069;DHT22;13887;57.196;-2.100;2023-09-19T04:17:29;11.69;74.00
22069;DHT22;13887;57.196;-2.100;2023-09-19T04:19:59;11.68;74.09
22069;DHT22;13887;57.196;-2.100;2023-09-19T04:22:26;11.69;74.03
22069;DHT22;13887;57.196;-2.100;2023-09-19T04:24:53;11.68;74.06
22069;DHT22;13887;57.196;-2.100;2023-09-19T04:27:21;11.63;74.15
22069;DHT22;13887;57.196;-2.100;2023-09-19T04:29:48;11.67;73.92
22069;DHT22;13887;57.196;-2.100;2023-09-19T04:32:16;11.63;74.08
22069;DHT22;13887;57.196;-2.100;2023-09-19T04:34:44;11.62;74.13
22069;DHT22;13887;57.196;-2.100;2023-09-19T04:37:11;11.57;74.23
22069;DHT22;13887;57.196;-2.100;2023-09-19T04:39:42;11.59;74.27
22069;DHT22;13887;57.196;-2.100;2023-09-19T04:42:09;11.59;74.12
22069;DHT22;13887;57.196;-2.100;2023-09-19T04:44:41;11.58;74.06
22069;DHT22;13887;57.196;-2.100;2023-09-19T04:47:09;11.57;73.94
22069;DHT22;13887;57.196;-2.100;2023-09-19T04:49:39;11.57;74.05
22069;DHT22;13887;57.196;-2.100;2023-09-19T04:52:07;11.57;74.02
22069;DHT22;13887;57.196;-2.100;2023-09-19T04:54:34;11.54;74.18
22069;DHT22;13887;57.196;-2.100;2023-09-19T04:57:01;11.54;74.18
22069;DHT22;13887;57.196;-2.100;2023-09-19T04:59:28;11.58;74.09
22069;DHT22;13887;57.196;-2.100;2023-09-19T05:01:56;11.58;74.03
22069;DHT22;13887;57.196;-2.100;2023-09-19T05:04:23;11.56;74.24
22069;DHT22;13887;57.196;-2.100;2023-09-19T05:06:50;11.57;74.18
22069;DHT22;13887;57.196;-2.100;2023-09-19T05:09:18;11.55;74.34
22069;DHT22;13887;57.196;-2.100;2023-09-19T05:11:47;11.58;74.22
22069;DHT22;13887;57.196;-2.100;2023-09-19T05:14:15;11.56;74.32
22069;DHT22;13887;57.196;-2.100;2023-09-19T05:16:42;11.55;74.47
22069;DHT22;13887;57.196;-2.100;2023-09-19T05:19:09;11.54;74.51
22069;DHT22;13887;57.196;-2.100;2023-09-19T05:21:39;11.53;74.58
22069;DHT22;13887;57.196;-2.100;2023-09-19T05:24:06;11.52;74.73
22069;DHT22;13887;57.196;-2.100;2023-09-19T05:26:37;11.52;74.76
22069;DHT22;13887;57.196;-2.100;2023-09-19T05:29:04;11.55;74.67
22069;DHT22;13887;57.196;-2.100;2023-09-19T05:31:32;11.53;74.80
22069;DHT22;13887;57.196;-2.100;2023-09-19T05:33:59;11.52;74.88
22069;DHT22;13887;57.196;-2.100;2023-09-19T05:36:28;11.51;74.99
22069;DHT22;13887;57.196;-2.100;2023-09-19T05:38:56;11.52;75.05
22069;DHT22;13887;57.196;-2.100;2023-09-19T05:41:23;11.53;75.05
22069;DHT22;13887;57.196;-2.100;2023-09-19T05:43:51;11.51;75.20
22069;DHT22;13887;57.196;-2.100;2023-09-19T05:46:18;11.52;75.20
22069;DHT22;13887;57.196;-2.100;2023-09-19T05:48:46;11.49;75.36
22069;DHT22;13887;57.196;-2.100;2023-09-19T05:51:14;11.48;75.41
22069;DHT22;13887;57.196;-2.100;2023-09-19T05:53:41;11.51;75.35
22069;DHT22;13887;57.196;-2.100;2023-09-19T05:56:10;11.49;75.47
22069;DHT22;13887;57.196;-2.100;2023-09-19T05:58:38;11.49;75.53
22069;DHT22;13887;57.196;-2.100;2023-09-19T06:01:05;11.49;75.60
22069;DHT22;13887;57.196;-2.100;2023-09-19T06:03:34;11.51;75.57
22069;DHT22;13887;57.196;-2.100;2023-09-19T06:06:02;11.51;75.63
22069;DHT22;13887;57.196;-2.100;2023-09-19T06:08:29;11.52;75.63
22069;DHT22;13887;57.196;-2.100;2023-09-19T06:10:58;11.49;75.69
22069;DHT22;13887;57.196;-2.100;2023-09-19T06:13:29;11.46;75.97
22069;DHT22;13887;57.196;-2.100;2023-09-19T06:15:57;11.46;75.94
22069;DHT22;13887;57.196;-2.100;2023-09-19T06:18:25;11.46;75.92
22069;DHT22;13887;57.196;-2.100;2023-09-19T06:20:53;11.45;76.03
22069;DHT22;13887;57.196;-2.100;2023-09-19T06:23:20;11.45;76.05
22069;DHT22;13887;57.196;-2.100;2023-09-19T06:25:48;11.45;76.08
22069;DHT22;13887;57.196;-2.100;2023-09-19T06:28:15;11.45;76.08
22069;DHT22;13887;57.196;-2.100;2023-09-19T06:30:45;11.46;76.06
22069;DHT22;13887;57.196;-2.100;2023-09-19T06:33:12;11.44;76.17
22069;DHT22;13887;57.196;-2.100;2023-09-19T06:35:42;11.49;76.02
22069;DHT22;13887;57.196;-2.100;2023-09-19T06:38:14;11.47;76.10
22069;DHT22;13887;57.196;-2.100;2023-09-19T06:40:42;11.48;76.12
22069;DHT22;13887;57.196;-2.100;2023-09-19T06:43:10;11.47;76.16
22069;DHT22;13887;57.196;-2.100;2023-09-19T06:45:37;11.47;76.17
22069;DHT22;13887;57.196;-2.100;2023-09-19T06:48:05;11.47;76.15
22069;DHT22;13887;57.196;-2.100;2023-09-19T06:50:33;11.47;76.21
22069;DHT22;13887;57.196;-2.100;2023-09-19T06:53:01;11.47;76.20
22069;DHT22;13887;57.196;-2.100;2023-09-19T06:55:29;11.46;76.27
22069;DHT22;13887;57.196;-2.100;2023-09-19T06:57:59;11.48;76.23
22069;DHT22;13887;57.196;-2.100;2023-09-19T07:00:26;11.52;76.09
22069;DHT22;13887;57.196;-2.100;2023-09-19T07:03:02;11.51;76.12
22069;DHT22;13887;57.196;-2.100;2023-09-19T07:05:32;11.52;76.08
22069;DHT22;13887;57.196;-2.100;2023-09-19T07:08:00;11.51;76.20
22069;DHT22;13887;57.196;-2.100;2023-09-19T07:10:28;11.19;77.28
22069;DHT22;13887;57.196;-2.100;2023-09-19T07:12:59;11.33;76.93
22069;DHT22;13887;57.196;-2.100;2023-09-19T07:15:28;11.44;76.50
22069;DHT22;13887;57.196;-2.100;2023-09-19T07:17:56;11.49;76.21
22069;DHT22;13887;57.196;-2.100;2023-09-19T07:20:24;11.53;76.13
22069;DHT22;13887;57.196;-2.100;2023-09-19T07:22:57;11.52;76.13
22069;DHT22;13887;57.196;-2.100;2023-09-19T07:25:30;11.54;76.05
22069;DHT22;13887;57.196;-2.100;2023-09-19T07:27:58;11.56;76.10
22069;DHT22;13887;57.196;-2.100;2023-09-19T07:30:28;11.56;76.15
22069;DHT22;13887;57.196;-2.100;2023-09-19T07:32:56;11.54;76.30
22069;DHT22;13887;57.196;-2.100;2023-09-19T07:35:24;11.54;76.28
22069;DHT22;13887;57.196;-2.100;2023-09-19T07:37:52;11.55;76.31
22069;DHT22;13887;57.196;-2.100;2023-09-19T07:40:20;11.52;76.42
22069;DHT22;13887;57.196;-2.100;2023-09-19T07:42:48;11.53;76.44
22069;DHT22;13887;57.196;-2.100;2023-09-19T07:45:16;11.55;76.41
22069;DHT22;13887;57.196;-2.100;2023-09-19T07:48:04;11.56;76.44
22069;DHT22;13887;57.196;-2.100;2023-09-19T07:50:34;11.57;76.45
22069;DHT22;13887;57.196;-2.100;2023-09-19T07:53:04;11.55;76.56
22069;DHT22;13887;57.196;-2.100;2023-09-19T07:55:32;11.59;76.41
22069;DHT22;13887;57.196;-2.100;2023-09-19T07:58:01;11.58;76.51
22069;DHT22;13887;57.196;-2.100;2023-09-19T08:00:31;11.56;76.67
22069;DHT22;13887;57.196;-2.100;2023-09-19T08:02:59;11.56;76.69
22069;DHT22;13887;57.196;-2.100;2023-09-19T08:05:34;11.57;76.75
22069;DHT22;13887;57.196;-2.100;2023-09-19T08:08:01;11.54;76.90
22069;DHT22;13887;57.196;-2.100;2023-09-19T08:10:28;11.55;76.90
22069;DHT22;13887;57.196;-2.100;2023-09-19T08:13:02;11.56;76.88
22069;DHT22;13887;57.196;-2.100;2023-09-19T08:15:29;11.58;76.82
22069;DHT22;13887;57.196;-2.100;2023-09-19T08:17:57;11.59;76.81
22069;DHT22;13887;57.196;-2.100;2023-09-19T08:20:24;11.61;76.75
22069;DHT22;13887;57.196;-2.100;2023-09-19T08:22:53;11.60;76.89
22069;DHT22;13887;57.196;-2.100;2023-09-19T08:25:23;11.61;76.89
22069;DHT22;13887;57.196;-2.100;2023-09-19T08:27:54;11.62;76.92
22069;DHT22;13887;57.196;-2.100;2023-09-19T08:30:25;11.61;77.02
22069;DHT22;13887;57.196;-2.100;2023-09-19T08:32:58;11.62;77.11
22069;DHT22;13887;57.196;-2.100;2023-09-19T08:35:28;11.63;76.95
22069;DHT22;13887;57.196;-2.100;2023-09-19T08:37:56;11.67;76.94
22069;DHT22;13887;57.196;-2.100;2023-09-19T08:40:24;11.67;77.05
22069;DHT22;13887;57.196;-2.100;2023-09-19T08:42:53;11.67;77.12
22069;DHT22;13887;57.196;-2.100;2023-09-19T08:45:22;11.68;77.15
22069;DHT22;13887;57.196;-2.100;2023-09-19T08:50:52;11.71;77.13
22069;DHT22;13887;57.196;-2.100;2023-09-19T08:53:34;11.71;77.09
22069;DHT22;13887;57.196;-2.100;2023-09-19T08:56:10;11.73;77.22
22069;DHT22;13887;57.196;-2.100;2023-09-19T08:59:02;11.72;77.22
22069;DHT22;13887;57.196;-2.100;2023-09-19T09:01:31;11.73;77.27
22069;DHT22;13887;57.196;-2.100;2023-09-19T09:04:01;11.73;77.46
22069;DHT22;13887;57.196;-2.100;2023-09-19T09:06:29;11.71;77.55
22069;DHT22;13887;57.196;-2.100;2023-09-19T09:08:57;11.72;77.48
22069;DHT22;13887;57.196;-2.100;2023-09-19T09:11:24;11.71;77.56
22069;DHT22;13887;57.196;-2.100;2023-09-19T09:13:52;11.73;77.58
22069;DHT22;13887;57.196;-2.100;2023-09-19T09:16:19;11.73;77.64
22069;DHT22;13887;57.196;-2.100;2023-09-19T09:18:47;11.73;77.64
22069;DHT22;13887;57.196;-2.100;2023-09-19T09:21:21;11.74;77.63
22069;DHT22;13887;57.196;-2.100;2023-09-19T09:23:49;11.76;77.57
22069;DHT22;13887;57.196;-2.100;2023-09-19T09:29:06;11.79;77.63
22069;DHT22;13887;57.196;-2.100;2023-09-19T09:31:33;11.82;77.59
22069;DHT22;13887;57.196;-2.100;2023-09-19T09:34:00;11.83;77.55
22069;DHT22;13887;57.196;-2.100;2023-09-19T09:36:39;11.84;77.54
22069;DHT22;13887;57.196;-2.100;2023-09-19T09:39:08;11.87;77.60
22069;DHT22;13887;57.196;-2.100;2023-09-19T09:41:46;11.89;77.54
22069;DHT22;13887;57.196;-2.100;2023-09-19T09:44:17;11.92;77.53
22069;DHT22;13887;57.196;-2.100;2023-09-19T09:46:49;11.92;77.45
22069;DHT22;13887;57.196;-2.100;2023-09-19T09:49:23;11.94;77.70
22069;DHT22;13887;57.196;-2.100;2023-09-19T09:54:38;11.93;77.79
22069;DHT22;13887;57.196;-2.100;2023-09-19T09:57:09;11.93;77.90
22069;DHT22;13887;57.196;-2.100;2023-09-19T09:59:55;11.92;77.90
22069;DHT22;13887;57.196;-2.100;2023-09-19T10:02:29;11.93;77.98
22069;DHT22;13887;57.196;-2.100;2023-09-19T10:05:14;11.91;78.02
22069;DHT22;13887;57.196;-2.100;2023-09-19T10:07:51;11.91;77.97
22069;DHT22;13887;57.196;-2.100;2023-09-19T10:13:07;11.93;78.08
22069;DHT22;13887;57.196;-2.100;2023-09-19T10:15:34;11.93;78.14
22069;DHT22;13887;57.196;-2.100;2023-09-19T10:18:04;11.93;78.14
22069;DHT22;13887;57.196;-2.100;2023-09-19T10:20:32;11.93;78.28
22069;DHT22;13887;57.196;-2.100;2023-09-19T10:23:06;11.93;78.23
22069;DHT22;13887;57.196;-2.100;2023-09-19T10:25:41;11.93;78.18
22069;DHT22;13887;57.196;-2.100;2023-09-19T10:28:13;11.93;78.32
22069;DHT22;13887;57.196;-2.100;2023-09-19T10:30:45;11.97;78.17
22069;DHT22;13887;57.196;-2.100;2023-09-19T10:33:16;11.97;78.37
22069;DHT22;13887;57.196;-2.100;2023-09-19T10:35:47;11.97;78.11
22069;DHT22;13887;57.196;-2.100;2023-09-19T10:38:17;11.97;78.24
22069;DHT22;13887;57.196;-2.100;2023-09-19T10:40:53;11.98;78.13
22069;DHT22;13887;57.196;-2.100;2023-09-19T10:43:25;11.96;78.15
22069;DHT22;13887;57.196;-2.100;2023-09-19T10:45:53;11.96;78.21
22069;DHT22;13887;57.196;-2.100;2023-09-19T10:48:22;11.97;78.14
22069;DHT22;13887;57.196;-2.100;2023-09-19T10:51:08;11.99;78.01
22069;DHT22;13887;57.196;-2.100;2023-09-19T10:53:57;11.99;78.14
22069;DHT22;13887;57.196;-2.100;2023-09-19T10:56:30;12.03;78.27
22069;DHT22;13887;57.196;-2.100;2023-09-19T10:59:13;12.03;77.99
22069;DHT22;13887;57.196;-2.100;2023-09-19T11:01:49;12.05;77.94
22069;DHT22;13887;57.196;-2.100;2023-09-19T11:07:10;12.13;77.84
22069;DHT22;13887;57.196;-2.100;2023-09-19T11:09:51;12.15;77.81
22069;DHT22;13887;57.196;-2.100;2023-09-19T11:15:08;12.13;77.89
22069;DHT22;13887;57.196;-2.100;2023-09-19T11:17:39;12.12;77.94
22069;DHT22;13887;57.196;-2.100;2023-09-19T11:30:35;12.19;77.91
22069;DHT22;13887;57.196;-2.100;2023-09-19T11:33:23;12.19;78.04
22069;DHT22;13887;57.196;-2.100;2023-09-19T11:36:16;12.21;78.11
22069;DHT22;13887;57.196;-2.100;2023-09-19T11:46:28;12.23;78.18
22069;DHT22;13887;57.196;-2.100;2023-09-19T11:49:08;12.26;78.11
22069;DHT22;13887;57.196;-2.100;2023-09-19T11:51:43;12.25;78.08
22069;DHT22;13887;57.196;-2.100;2023-09-19T11:54:12;12.29;78.08
22069;DHT22;13887;57.196;-2.100;2023-09-19T11:56:45;12.27;78.15
22069;DHT22;13887;57.196;-2.100;2023-09-19T11:59:38;12.30;78.07
22069;DHT22;13887;57.196;-2.100;2023-09-19T12:02:07;12.32;78.08
22069;DHT22;13887;57.196;-2.100;2023-09-19T12:04:38;12.33;78.14
22069;DHT22;13887;57.196;-2.100;2023-09-19T12:07:10;12.32;78.07
22069;DHT22;13887;57.196;-2.100;2023-09-19T12:09:44;12.32;78.26
22069;DHT22;13887;57.196;-2.100;2023-09-19T12:12:20;12.31;78.30
22069;DHT22;13887;57.196;-2.100;2023-09-19T12:14:49;12.33;78.24
22069;DHT22;13887;57.196;-2.100;2023-09-19T12:17:17;12.34;78.22
22069;DHT22;13887;57.196;-2.100;2023-09-19T12:19:51;12.36;78.01
22069;DHT22;13887;57.196;-2.100;2023-09-19T12:22:19;12.36;78.14
22069;DHT22;13887;57.196;-2.100;2023-09-19T12:24:50;12.36;78.29
22069;DHT22;13887;57.196;-2.100;2023-09-19T12:27:17;12.40;78.20
22069;DHT22;13887;57.196;-2.100;2023-09-19T12:29:46;12.42;78.05
22069;DHT22;13887;57.196;-2.100;2023-09-19T12:32:36;12.43;78.18
22069;DHT22;13887;57.196;-2.100;2023-09-19T12:35:08;12.44;78.17
22069;DHT22;13887;57.196;-2.100;2023-09-19T12:37:45;12.46;78.11
22069;DHT22;13887;57.196;-2.100;2023-09-19T12:40:21;12.45;78.25
22069;DHT22;13887;57.196;-2.100;2023-09-19T12:42:57;12.50;78.09
22069;DHT22;13887;57.196;-2.100;2023-09-19T12:45:32;12.48;78.21
22069;DHT22;13887;57.196;-2.100;2023-09-19T12:51:09;12.49;78.39
22069;DHT22;13887;57.196;-2.100;2023-09-19T12:53:43;12.50;78.29
22069;DHT22;13887;57.196;-2.100;2023-09-19T12:56:15;12.51;78.21
22069;DHT22;13887;57.196;-2.100;2023-09-19T12:58:53;12.53;78.13
22069;DHT22;13887;57.196;-2.100;2023-09-19T13:01:22;12.51;78.19
22069;DHT22;13887;57.196;-2.100;2023-09-19T13:06:39;12.51;78.11
22069;DHT22;13887;57.196;-2.100;2023-09-19T13:09:11;12.53;78.11
22069;DHT22;13887;57.196;-2.100;2023-09-19T13:11:38;12.53;78.08
22069;DHT22;13887;57.196;-2.100;2023-09-19T13:14:26;12.55;78.06
22069;DHT22;13887;57.196;-2.100;2023-09-19T13:17:08;12.55;78.04
22069;DHT22;13887;57.196;-2.100;2023-09-19T13:19:44;12.53;78.23
22069;DHT22;13887;57.196;-2.100;2023-09-19T13:25:18;12.56;78.07
22069;DHT22;13887;57.196;-2.100;2023-09-19T13:27:48;12.52;78.30
22069;DHT22;13887;57.196;-2.100;2023-09-19T13:30:19;12.53;78.39
22069;DHT22;13887;57.196;-2.100;2023-09-19T13:32:47;12.56;78.10
22069;DHT22;13887;57.196;-2.100;2023-09-19T13:35:15;12.57;78.13
22069;DHT22;13887;57.196;-2.100;2023-09-19T13:37:43;12.56;78.21
22069;DHT22;13887;57.196;-2.100;2023-09-19T13:40:15;12.52;78.37
22069;DHT22;13887;57.196;-2.100;2023-09-19T13:42:42;12.53;78.55
22069;DHT22;13887;57.196;-2.100;2023-09-19T13:45:09;12.56;78.33
22069;DHT22;13887;57.196;-2.100;2023-09-19T13:47:40;12.55;78.45
22069;DHT22;13887;57.196;-2.100;2023-09-19T13:50:08;12.56;78.52
22069;DHT22;13887;57.196;-2.100;2023-09-19T13:52:36;12.53;78.37
22069;DHT22;13887;57.196;-2.100;2023-09-19T13:55:03;12.57;78.40
22069;DHT22;13887;57.196;-2.100;2023-09-19T13:57:32;12.59;78.24
22069;DHT22;13887;57.196;-2.100;2023-09-19T14:00:00;12.58;78.49
22069;DHT22;13887;57.196;-2.100;2023-09-19T14:02:38;12.58;78.37
22069;DHT22;13887;57.196;-2.100;2023-09-19T14:05:07;12.60;78.32
22069;DHT22;13887;57.196;-2.100;2023-09-19T14:07:34;12.58;78.78
22069;DHT22;13887;57.196;-2.100;2023-09-19T14:10:01;12.57;78.75
22069;DHT22;13887;57.196;-2.100;2023-09-19T14:12:29;12.57;78.63
22069;DHT22;13887;57.196;-2.100;2023-09-19T14:14:57;12.58;78.75
22069;DHT22;13887;57.196;-2.100;2023-09-19T14:17:24;12.57;79.14
22069;DHT22;13887;57.196;-2.100;2023-09-19T14:19:53;12.60;78.49
22069;DHT22;13887;57.196;-2.100;2023-09-19T14:22:20;12.59;78.82
22069;DHT22;13887;57.196;-2.100;2023-09-19T14:24:47;12.59;78.72
22069;DHT22;13887;57.196;-2.100;2023-09-19T14:27:14;12.59;79.01
22069;DHT22;13887;57.196;-2.100;2023-09-19T14:29:42;12.59;79.06
22069;DHT22;13887;57.196;-2.100;2023-09-19T14:32:09;12.58;79.07
22069;DHT22;13887;57.196;-2.100;2023-09-19T14:34:36;12.59;79.04
22069;DHT22;13887;57.196;-2.100;2023-09-19T14:37:09;12.59;79.04
22069;DHT22;13887;57.196;-2.100;2023-09-19T14:39:37;12.61;78.79
22069;DHT22;13887;57.196;-2.100;2023-09-19T14:42:06;12.60;78.88
22069;DHT22;13887;57.196;-2.100;2023-09-19T14:44:36;12.60;79.17
22069;DHT22;13887;57.196;-2.100;2023-09-19T14:47:04;12.60;79.10
22069;DHT22;13887;57.196;-2.100;2023-09-19T14:49:36;12.61;78.98
22069;DHT22;13887;57.196;-2.100;2023-09-19T14:52:08;12.61;79.04
22069;DHT22;13887;57.196;-2.100;2023-09-19T14:54:35;12.64;78.95
22069;DHT22;13887;57.196;-2.100;2023-09-19T14:57:04;12.66;78.86
22069;DHT22;13887;57.196;-2.100;2023-09-19T14:59:32;12.65;79.17
22069;DHT22;13887;57.196;-2.100;2023-09-19T15:01:59;12.66;79.11
22069;DHT22;13887;57.196;-2.100;2023-09-19T15:04:27;12.70;78.96
22069;DHT22;13887;57.196;-2.100;2023-09-19T15:06:55;12.67;78.93
22069;DHT22;13887;57.196;-2.100;2023-09-19T15:09:24;12.67;78.92
22069;DHT22;13887;57.196;-2.100;2023-09-19T15:11:53;12.67;78.99
22069;DHT22;13887;57.196;-2.100;2023-09-19T15:14:24;12.67;79.20
22069;DHT22;13887;57.196;-2.100;2023-09-19T15:16:52;12.66;79.23
22069;DHT22;13887;57.196;-2.100;2023-09-19T15:19:19;12.67;79.49
22069;DHT22;13887;57.196;-2.100;2023-09-19T15:21:46;12.67;79.10
22069;DHT22;13887;57.196;-2.100;2023-09-19T15:24:13;12.69;79.19
22069;DHT22;13887;57.196;-2.100;2023-09-19T15:26:41;12.69;79.29
22069;DHT22;13887;57.196;-2.100;2023-09-19T15:29:10;12.67;79.38
22069;DHT22;13887;57.196;-2.100;2023-09-19T15:31:38;12.67;79.41
22069;DHT22;13887;57.196;-2.100;2023-09-19T15:34:05;12.67;79.30
22069;DHT22;13887;57.196;-2.100;2023-09-19T15:36:34;12.66;79.41
22069;DHT22;13887;57.196;-2.100;2023-09-19T15:39:03;12.67;79.41
22069;DHT22;13887;57.196;-2.100;2023-09-19T15:41:37;12.67;79.48
22069;DHT22;13887;57.196;-2.100;2023-09-19T15:44:12;12.66;79.53
22069;DHT22;13887;57.196;-2.100;2023-09-19T15:46:41;12.66;79.58
22069;DHT22;13887;57.196;-2.100;2023-09-19T15:49:08;12.69;79.47
22069;DHT22;13887;57.196;-2.100;2023-09-19T15:51:36;12.69;79.56
22069;DHT22;13887;57.196;-2.100;2023-09-19T15:54:14;12.69;79.53
22069;DHT22;13887;57.196;-2.100;2023-09-19T15:56:43;12.71;79.47
22069;DHT22;13887;57.196;-2.100;2023-09-19T15:59:11;12.67;79.73
22069;DHT22;13887;57.196;-2.100;2023-09-19T16:01:43;12.69;79.75
22069;DHT22;13887;57.196;-2.100;2023-09-19T16:04:11;12.69;79.72
22069;DHT22;13887;57.196;-2.100;2023-09-19T16:06:39;12.69;79.69
22069;DHT22;13887;57.196;-2.100;2023-09-19T16:09:08;12.70;79.84
22069;DHT22;13887;57.196;-2.100;2023-09-19T16:11:37;12.70;79.80
22069;DHT22;13887;57.196;-2.100;2023-09-19T16:14:04;12.67;79.78
22069;DHT22;13887;57.196;-2.100;2023-09-19T16:16:33;12.71;79.91
22069;DHT22;13887;57.196;-2.100;2023-09-19T16:19:02;12.69;79.96
22069;DHT22;13887;57.196;-2.100;2023-09-19T16:21:33;12.70;79.85
22069;DHT22;13887;57.196;-2.100;2023-09-19T16:24:03;12.67;79.95
22069;DHT22;13887;57.196;-2.100;2023-09-19T16:26:32;12.70;79.85